createdAt,value
2019-05-01T00:01:40.767Z,22.43
2019-05-01T00:04:29.145Z,23.33
2019-05-01T00:07:02.587Z,23.70
2019-05-01T00:09:33.365Z,20.50
2019-05-01T00:12:03.973Z,23.10
2019-05-01T00:14:36.352Z,21.87
2019-05-01T00:17:07.026Z,22.97
2019-05-01T00:19:37.675Z,23.67
2019-05-01T00:22:08.247Z,23.40
2019-05-01T00:24:38.792Z,22.73
2019-05-01T00:27:09.373Z,23.93
2019-05-01T00:29:39.923Z,20.23
2019-05-01T00:32:10.496Z,23.13
2019-05-01T00:34:41.083Z,23.53
2019-05-01T00:37:11.602Z,22.33
2019-05-01T00:39:42.071Z,22.17
2019-05-01T00:42:12.692Z,23.37
2019-05-01T00:44:43.251Z,23.37
2019-05-01T00:47:13.795Z,23.87
2019-05-01T00:49:44.363Z,25.23
2019-05-01T00:52:14.862Z,26.67
2019-05-01T00:54:46.976Z,26.70
2019-05-01T00:57:34.432Z,28.13
2019-05-01T01:00:24.875Z,27.93
2019-05-01T01:02:56.233Z,26.90
2019-05-01T01:05:26.729Z,27.83
2019-05-01T01:07:57.292Z,26.97
2019-05-01T01:10:27.791Z,26.60
2019-05-01T01:12:58.483Z,24.77
2019-05-01T01:15:29.133Z,24.80
2019-05-01T01:17:59.699Z,24.47
2019-05-01T01:20:31.525Z,22.80
2019-05-01T01:23:02.385Z,22.70
2019-05-01T01:25:33.955Z,22.33
2019-05-01T01:28:04.839Z,21.83
2019-05-01T01:30:35.314Z,21.63
2019-05-01T01:33:05.889Z,20.77
2019-05-01T01:35:36.355Z,22.43
2019-05-01T01:38:06.839Z,23.03
2019-05-01T01:40:37.580Z,21.87
2019-05-01T01:43:26.013Z,21.07
2019-05-01T01:45:58.424Z,20.40
2019-05-01T01:48:29.111Z,23.30
2019-05-01T01:51:00.222Z,21.23
2019-05-01T01:53:31.084Z,21.50
2019-05-01T01:56:01.642Z,20.50
2019-05-01T01:58:32.450Z,19.17
2019-05-01T02:01:28.093Z,19.10
2019-05-01T02:04:03.948Z,19.97
2019-05-01T02:06:34.520Z,20.10
2019-05-01T02:09:07.060Z,21.43
2019-05-01T02:11:39.156Z,19.00
2019-05-01T02:14:09.619Z,20.93
2019-05-01T02:16:40.209Z,19.27
2019-05-01T02:19:10.851Z,19.33
2019-05-01T02:21:41.451Z,20.67
2019-05-01T02:24:12.067Z,20.17
2019-05-01T02:26:46.129Z,20.53
2019-05-01T02:29:31.123Z,20.70
2019-05-01T02:32:01.983Z,20.13
2019-05-01T02:34:33.359Z,22.13
2019-05-01T02:37:05.015Z,22.03
2019-05-01T02:39:37.512Z,23.60
2019-05-01T02:42:09.795Z,26.27
2019-05-01T02:44:47.286Z,28.33
2019-05-01T02:47:23.720Z,28.40
2019-05-01T02:50:06.123Z,27.30
2019-05-01T02:52:39.575Z,26.77
2019-05-01T02:55:36.177Z,24.77
2019-05-01T02:58:09.831Z,28.20
2019-05-01T03:00:40.687Z,27.27
2019-05-01T03:03:12.232Z,28.40
2019-05-01T03:05:42.721Z,28.00
2019-05-01T03:08:13.311Z,29.63
2019-05-01T03:10:43.812Z,30.23
2019-05-01T03:13:14.307Z,31.70
2019-05-01T03:15:44.863Z,31.10
2019-05-01T03:18:30.411Z,31.57
2019-05-01T03:21:26.267Z,30.70
2019-05-01T03:24:01.164Z,30.13
2019-05-01T03:26:32.064Z,33.10
2019-05-01T03:29:02.562Z,32.67
2019-05-01T03:31:33.162Z,33.13
2019-05-01T03:34:03.745Z,34.23
2019-05-01T03:36:34.265Z,35.27
2019-05-01T03:39:06.143Z,32.70
2019-05-01T03:41:36.921Z,34.33
2019-05-01T03:44:08.447Z,33.27
2019-05-01T03:46:39.062Z,34.23
2019-05-01T03:49:09.936Z,32.03
2019-05-01T03:51:41.629Z,34.50
2019-05-01T03:54:13.162Z,33.67
2019-05-01T03:56:44.287Z,32.47
2019-05-01T03:59:15.202Z,34.33
2019-05-01T04:01:55.227Z,34.50
2019-05-01T04:04:28.154Z,31.87
2019-05-01T04:06:59.017Z,32.10
2019-05-01T04:09:29.576Z,31.70
2019-05-01T04:12:00.096Z,30.60
2019-05-01T04:14:31.637Z,30.60
2019-05-01T04:17:10.125Z,33.27
2019-05-01T04:19:40.928Z,34.90
2019-05-01T04:22:12.973Z,36.93
2019-05-01T04:24:44.221Z,35.67
2019-05-01T04:27:21.203Z,38.00
2019-05-01T04:30:08.962Z,35.13
2019-05-01T04:32:52.307Z,36.97
2019-05-01T04:35:19.514Z,36.33
2019-05-01T04:37:50.134Z,37.33
2019-05-01T04:40:21.546Z,35.77
2019-05-01T04:42:52.122Z,36.73
2019-05-01T04:45:23.425Z,38.10
2019-05-01T04:47:54.437Z,40.00
2019-05-01T04:50:25.225Z,43.03
2019-05-01T04:52:56.273Z,41.97
2019-05-01T04:55:27.455Z,43.53
2019-05-01T04:57:58.177Z,43.47
2019-05-01T05:00:29.332Z,44.00
2019-05-01T05:03:05.219Z,42.53
2019-05-01T05:05:36.328Z,42.93
2019-05-01T05:08:07.065Z,42.93
2019-05-01T05:10:39.093Z,41.63
2019-05-01T05:13:23.359Z,43.43
2019-05-01T05:16:08.855Z,41.37
2019-05-01T05:18:39.312Z,41.23
2019-05-01T05:21:10.256Z,41.90
2019-05-01T05:23:40.903Z,41.47
2019-05-01T05:26:11.399Z,39.13
2019-05-01T05:28:43.582Z,40.00
2019-05-01T05:31:14.753Z,38.80
2019-05-01T05:33:48.697Z,38.30
2019-05-01T05:36:20.114Z,35.73
2019-05-01T05:39:19.198Z,34.07
2019-05-01T05:41:50.919Z,36.90
2019-05-01T05:44:21.575Z,33.93
2019-05-01T05:46:52.126Z,32.20
2019-05-01T05:49:23.454Z,33.50
2019-05-01T05:52:03.040Z,32.87
2019-05-01T05:54:59.464Z,32.27
2019-05-01T05:57:53.346Z,31.73
2019-05-01T06:00:47.667Z,31.13
2019-05-01T06:03:38.877Z,30.20
2019-05-01T06:06:22.227Z,30.43
2019-05-01T06:08:54.972Z,28.53
2019-05-01T06:11:50.087Z,30.03
2019-05-01T06:14:50.909Z,27.63
2019-05-01T06:17:33.024Z,29.27
2019-05-01T06:20:13.972Z,29.70
2019-05-01T06:23:02.583Z,27.73
2019-05-01T06:25:36.477Z,27.17
2019-05-01T06:28:07.308Z,26.50
2019-05-01T06:30:41.991Z,25.53
2019-05-01T06:33:11.282Z,26.07
2019-05-01T06:35:42.075Z,25.60
2019-05-01T06:38:16.677Z,24.00
2019-05-01T06:40:53.221Z,23.57
2019-05-01T06:43:35.578Z,22.20
2019-05-01T06:46:40.113Z,20.97
2019-05-01T06:49:28.934Z,20.97
2019-05-01T06:51:57.957Z,22.13
2019-05-01T06:54:30.349Z,21.43
2019-05-01T06:57:02.555Z,21.47
2019-05-01T06:59:35.062Z,20.17
2019-05-01T07:02:06.302Z,21.10
2019-05-01T07:04:38.152Z,20.00
2019-05-01T07:07:18.569Z,19.07
2019-05-01T07:09:44.127Z,20.30
2019-05-01T07:12:18.869Z,18.33
2019-05-01T07:14:50.805Z,18.97
2019-05-01T07:17:23.263Z,17.77
2019-05-01T07:20:19.301Z,17.67
2019-05-01T07:22:49.766Z,17.63
2019-05-01T07:25:20.494Z,17.20
2019-05-01T07:27:54.019Z,17.40
2019-05-01T07:30:42.577Z,17.83
2019-05-01T07:33:16.609Z,16.67
2019-05-01T07:35:45.940Z,16.20
2019-05-01T07:38:16.874Z,16.97
2019-05-01T07:40:47.334Z,16.70
2019-05-01T07:43:39.757Z,15.90
2019-05-01T07:46:28.126Z,15.30
2019-05-01T07:48:58.965Z,16.63
2019-05-01T07:51:29.872Z,15.37
2019-05-01T07:54:04.052Z,14.87
2019-05-01T07:56:33.994Z,14.97
2019-05-01T07:59:04.711Z,14.73
2019-05-01T08:01:54.651Z,14.53
2019-05-01T08:04:35.976Z,14.70
2019-05-01T08:06:58.696Z,14.50
2019-05-01T08:09:29.323Z,13.67
2019-05-01T08:11:59.879Z,12.37
2019-05-01T08:14:30.445Z,12.50
2019-05-01T08:17:00.939Z,12.57
2019-05-01T08:19:39.531Z,13.30
2019-05-01T08:22:16.359Z,12.93
2019-05-01T08:24:46.853Z,12.97
2019-05-01T08:27:36.505Z,11.70
2019-05-01T08:30:26.421Z,12.83
2019-05-01T08:33:18.807Z,10.70
2019-05-01T08:35:49.422Z,11.30
2019-05-01T08:38:20.194Z,11.13
2019-05-01T08:40:55.083Z,9.87
2019-05-01T08:43:22.988Z,10.73
2019-05-01T08:46:16.472Z,10.70
2019-05-01T08:48:55.253Z,10.97
2019-05-01T08:51:30.130Z,9.97
2019-05-01T08:53:59.523Z,9.83
2019-05-01T08:56:30.134Z,11.10
2019-05-01T08:59:00.558Z,11.53
2019-05-01T09:01:31.146Z,10.87
2019-05-01T09:04:12.329Z,11.87
2019-05-01T09:06:35.068Z,10.63
2019-05-01T09:09:09.903Z,13.37
2019-05-01T09:11:40.671Z,11.57
2019-05-01T09:14:11.200Z,10.50
2019-05-01T09:16:41.816Z,5.00
2019-05-01T09:19:12.468Z,4.43
2019-05-01T09:21:44.293Z,4.10
2019-05-01T09:24:14.911Z,3.67
2019-05-01T09:26:58.770Z,3.87
2019-05-01T09:29:36.601Z,3.47
2019-05-01T09:32:10.278Z,3.30
2019-05-01T09:34:39.676Z,3.73
2019-05-01T09:37:10.266Z,3.63
2019-05-01T09:39:40.973Z,3.37
2019-05-01T09:42:12.309Z,3.60
2019-05-01T09:44:42.898Z,3.03
2019-05-01T09:47:14.385Z,3.50
2019-05-01T09:49:48.695Z,3.43
2019-05-01T09:52:42.005Z,3.30
2019-05-01T09:55:17.812Z,3.30
2019-05-01T09:57:49.040Z,3.60
2019-05-01T10:00:27.312Z,2.80
2019-05-01T10:02:57.911Z,3.30
2019-05-01T10:05:29.328Z,3.80
2019-05-01T10:08:03.788Z,2.33
2019-05-01T10:10:32.335Z,3.67
2019-05-01T10:13:02.764Z,3.03
2019-05-01T10:15:33.276Z,2.80
2019-05-01T10:18:03.895Z,2.80
2019-05-01T10:20:34.390Z,2.70
2019-05-01T10:23:07.758Z,2.63
2019-05-01T10:25:42.792Z,4.50
2019-05-01T10:28:18.263Z,2.70
2019-05-01T10:31:11.997Z,2.90
2019-05-01T10:33:42.701Z,5.80
2019-05-01T10:36:32.101Z,2.83
2019-05-01T10:39:04.616Z,3.40
2019-05-01T10:41:35.863Z,3.30
2019-05-01T10:44:06.503Z,2.90
2019-05-01T10:46:37.049Z,4.33
2019-05-01T10:49:07.622Z,5.00
2019-05-01T10:51:38.257Z,3.03
2019-05-01T10:54:08.961Z,2.93
2019-05-01T10:56:39.494Z,3.20
2019-05-01T10:59:10.075Z,2.80
2019-05-01T11:01:48.424Z,2.40
2019-05-01T11:04:20.002Z,2.63
2019-05-01T11:06:50.786Z,2.67
2019-05-01T11:09:21.289Z,3.23
2019-05-01T11:11:51.861Z,1.90
2019-05-01T11:14:22.543Z,2.27
2019-05-01T11:16:53.100Z,2.33
2019-05-01T11:19:23.716Z,2.20
2019-05-01T11:21:54.333Z,3.30
2019-05-01T11:24:24.913Z,3.93
2019-05-01T11:26:55.452Z,2.47
2019-05-01T11:29:25.924Z,2.47
2019-05-01T11:32:02.352Z,2.47
2019-05-01T11:35:06.972Z,2.37
2019-05-01T11:37:51.883Z,2.53
2019-05-01T11:40:35.482Z,2.50
2019-05-01T11:43:05.965Z,2.30
2019-05-01T11:45:37.106Z,2.80
2019-05-01T11:48:07.696Z,2.77
2019-05-01T11:50:38.486Z,2.70
2019-05-01T11:53:08.971Z,3.30
2019-05-01T11:55:39.491Z,2.80
2019-05-01T11:58:10.068Z,3.50
2019-05-01T12:00:40.622Z,2.67
2019-05-01T12:03:11.196Z,2.70
2019-05-01T12:05:41.659Z,2.90
2019-05-01T12:08:12.238Z,2.80
2019-05-01T12:10:42.731Z,5.27
2019-05-01T12:13:14.335Z,3.20
2019-05-01T12:15:46.480Z,2.80
2019-05-01T12:18:16.939Z,3.00
2019-05-01T12:20:47.578Z,2.90
2019-05-01T12:23:18.478Z,5.00
2019-05-01T12:25:49.211Z,3.10
2019-05-01T12:28:19.923Z,2.50
2019-05-01T12:30:50.461Z,2.50
2019-05-01T12:33:20.942Z,2.47
2019-05-01T12:35:52.984Z,3.40
2019-05-01T12:38:23.659Z,3.13
2019-05-01T12:41:11.889Z,2.57
2019-05-01T12:43:42.396Z,2.60
2019-05-01T12:46:31.916Z,2.63
2019-05-01T12:49:02.512Z,2.90
2019-05-01T12:51:33.124Z,2.77
2019-05-01T12:54:19.099Z,3.00
2019-05-01T12:56:55.746Z,2.60
2019-05-01T12:59:26.508Z,2.23
2019-05-01T13:01:58.356Z,2.77
2019-05-01T13:04:29.949Z,2.50
2019-05-01T13:07:01.256Z,2.93
2019-05-01T13:09:31.784Z,2.27
2019-05-01T13:12:02.218Z,3.10
2019-05-01T13:14:32.814Z,2.83
2019-05-01T13:17:03.306Z,2.80
2019-05-01T13:19:34.761Z,2.47
2019-05-01T13:22:05.466Z,2.43
2019-05-01T13:24:38.588Z,2.53
2019-05-01T13:27:17.408Z,2.70
2019-05-01T13:30:12.988Z,2.93
2019-05-01T13:32:45.880Z,2.70
2019-05-01T13:35:16.354Z,2.53
2019-05-01T13:37:46.946Z,3.00
2019-05-01T13:40:18.404Z,4.53
2019-05-01T13:42:49.020Z,2.73
2019-05-01T13:45:19.522Z,2.60
2019-05-01T13:47:49.990Z,3.27
2019-05-01T13:50:20.666Z,2.87
2019-05-01T13:52:51.366Z,2.63
2019-05-01T13:55:22.146Z,2.57
2019-05-01T13:57:52.738Z,2.30
2019-05-01T14:00:25.089Z,2.33
2019-05-01T14:02:55.762Z,2.40
2019-05-01T14:05:27.311Z,2.63
2019-05-01T14:07:58.040Z,2.80
2019-05-01T14:10:28.785Z,2.63
2019-05-01T14:12:59.399Z,5.47
2019-05-01T14:15:29.983Z,3.37
2019-05-01T14:18:00.623Z,3.20
2019-05-01T14:20:48.226Z,2.70
2019-05-01T14:23:40.504Z,2.97
2019-05-01T14:26:11.336Z,2.57
2019-05-01T14:28:42.120Z,2.73
2019-05-01T14:31:12.694Z,2.30
2019-05-01T14:33:43.169Z,3.27
2019-05-01T14:36:13.728Z,2.90
2019-05-01T14:38:44.361Z,2.60
2019-05-01T14:41:14.903Z,2.63
2019-05-01T14:43:45.712Z,2.80
2019-05-01T14:46:16.442Z,3.73
2019-05-01T14:48:46.994Z,2.67
2019-05-01T14:51:17.487Z,3.40
2019-05-01T14:53:48.396Z,3.00
2019-05-01T14:56:18.938Z,2.63
2019-05-01T14:58:49.818Z,2.73
2019-05-01T15:01:20.296Z,2.90
2019-05-01T15:03:51.066Z,2.43
2019-05-01T15:06:22.003Z,2.50
2019-05-01T15:08:52.644Z,3.10
2019-05-01T15:11:23.152Z,2.77
2019-05-01T15:14:10.145Z,2.97
2019-05-01T15:16:46.236Z,2.70
2019-05-01T15:19:20.372Z,2.70
2019-05-01T15:21:50.974Z,4.30
2019-05-01T15:24:21.763Z,3.33
2019-05-01T15:26:53.352Z,3.27
2019-05-01T15:29:23.906Z,2.50
2019-05-01T15:31:54.804Z,2.80
2019-05-01T15:34:25.688Z,2.60
2019-05-01T15:36:56.418Z,2.80
2019-05-01T15:39:32.484Z,3.37
2019-05-01T15:42:13.758Z,6.10
2019-05-01T15:44:44.402Z,2.67
2019-05-01T15:47:15.165Z,3.27
2019-05-01T15:49:46.718Z,3.13
2019-05-01T15:52:17.277Z,5.07
2019-05-01T15:54:47.762Z,3.60
2019-05-01T15:57:18.247Z,3.47
2019-05-01T15:59:48.969Z,4.03
2019-05-01T16:02:19.386Z,4.90
2019-05-01T16:04:49.861Z,5.07
2019-05-01T16:07:20.285Z,4.13
2019-05-01T16:09:50.771Z,4.03
2019-05-01T16:12:35.356Z,4.00
2019-05-01T16:15:10.844Z,8.53
2019-05-01T16:17:41.391Z,3.17
2019-05-01T16:20:12.135Z,3.13
2019-05-01T16:22:42.621Z,3.30
2019-05-01T16:25:13.235Z,4.00
2019-05-01T16:27:43.757Z,3.97
2019-05-01T16:30:16.286Z,3.50
2019-05-01T16:32:46.849Z,4.03
2019-05-01T16:35:17.365Z,3.50
2019-05-01T16:37:48.036Z,3.83
2019-05-01T16:40:36.177Z,3.50
2019-05-01T16:43:09.372Z,3.60
2019-05-01T16:45:39.923Z,3.73
2019-05-01T16:48:10.531Z,4.13
2019-05-01T16:50:41.164Z,4.07
2019-05-01T16:53:11.856Z,4.17
2019-05-01T16:55:44.282Z,3.87
2019-05-01T16:58:15.296Z,3.93
2019-05-01T17:01:08.415Z,4.67
2019-05-01T17:03:56.703Z,4.03
2019-05-01T17:06:37.393Z,4.40
2019-05-01T17:09:38.128Z,4.10
2019-05-01T17:12:10.894Z,3.70
2019-05-01T17:14:40.813Z,3.90
2019-05-01T17:17:15.641Z,4.17
2019-05-01T17:19:46.191Z,4.50
2019-05-01T17:22:16.937Z,4.60
2019-05-01T17:24:47.611Z,3.70
2019-05-01T17:27:19.172Z,3.73
2019-05-01T17:29:49.598Z,3.70
2019-05-01T17:32:20.196Z,4.23
2019-05-01T17:34:50.670Z,4.20
2019-05-01T17:37:21.184Z,4.40
2019-05-01T17:39:51.744Z,5.30
2019-05-01T17:42:22.295Z,5.40
2019-05-01T17:44:55.974Z,5.60
2019-05-01T17:47:26.942Z,5.90
2019-05-01T17:49:57.440Z,5.30
2019-05-01T17:52:27.908Z,9.00
2019-05-01T17:55:01.263Z,6.37
2019-05-01T17:57:33.523Z,6.67
2019-05-01T18:00:04.432Z,6.47
2019-05-01T18:02:44.411Z,5.70
2019-05-01T18:05:40.313Z,5.23
2019-05-01T18:08:10.792Z,6.23
2019-05-01T18:10:41.382Z,6.70
2019-05-01T18:13:11.931Z,6.47
2019-05-01T18:15:42.590Z,6.93
2019-05-01T18:18:15.096Z,6.10
2019-05-01T18:20:45.150Z,26.77
2019-05-01T18:23:29.925Z,17.50
2019-05-01T18:26:08.727Z,8.20
2019-05-01T18:28:47.078Z,8.33
2019-05-01T18:31:22.122Z,6.90
2019-05-01T18:33:57.111Z,6.63
2019-05-01T18:36:31.728Z,7.43
2019-05-01T18:39:16.544Z,7.03
2019-05-01T18:41:49.393Z,6.47
2019-05-01T18:44:20.242Z,5.97
2019-05-01T18:46:50.743Z,6.60
2019-05-01T18:49:21.526Z,6.07
2019-05-01T18:51:52.372Z,6.30
2019-05-01T18:54:23.169Z,6.87
2019-05-01T18:56:54.755Z,6.23
2019-05-01T18:59:25.497Z,115.60
2019-05-01T19:01:56.207Z,9.47
2019-05-01T19:04:26.808Z,8.47
2019-05-01T19:06:57.386Z,8.53
2019-05-01T19:09:30.254Z,7.10
2019-05-01T19:12:00.428Z,6.63
2019-05-01T19:14:31.251Z,7.00
2019-05-01T19:17:01.872Z,6.70
2019-05-01T19:19:32.547Z,7.03
2019-05-01T19:22:03.194Z,8.27
2019-05-01T19:24:37.991Z,9.40
2019-05-01T19:27:06.451Z,11.30
2019-05-01T19:29:37.428Z,11.13
2019-05-01T19:32:08.762Z,9.93
2019-05-01T19:34:39.475Z,9.73
2019-05-01T19:37:10.318Z,10.23
2019-05-01T19:39:43.932Z,10.03
2019-05-01T19:42:13.497Z,11.17
2019-05-01T19:44:44.399Z,11.63
2019-05-01T19:47:15.016Z,11.17
2019-05-01T19:49:46.195Z,11.43
2019-05-01T19:52:16.814Z,102.77
2019-05-01T19:54:47.435Z,37.00
2019-05-01T19:57:18.046Z,12.77
2019-05-01T19:59:48.490Z,11.57
2019-05-01T20:02:22.092Z,12.00
2019-05-01T20:04:52.407Z,11.07
2019-05-01T20:07:22.988Z,11.17
2019-05-01T20:09:57.051Z,11.60
2019-05-01T20:12:25.799Z,11.77
2019-05-01T20:14:56.501Z,12.57
2019-05-01T20:17:27.080Z,12.00
2019-05-01T20:19:57.860Z,13.10
2019-05-01T20:22:28.427Z,11.47
2019-05-01T20:24:59.221Z,11.43
2019-05-01T20:27:29.765Z,11.13
2019-05-01T20:30:00.400Z,11.30
2019-05-01T20:32:30.959Z,9.70
2019-05-01T20:35:01.449Z,8.40
2019-05-01T20:37:32.245Z,7.27
2019-05-01T20:40:10.792Z,7.03
2019-05-01T20:42:36.562Z,6.80
2019-05-01T20:45:13.038Z,6.17
2019-05-01T20:47:45.462Z,6.83
2019-05-01T20:50:14.001Z,6.90
2019-05-01T20:52:44.769Z,8.17
2019-05-01T20:55:15.497Z,8.60
2019-05-01T20:57:46.993Z,9.20
2019-05-01T21:00:18.684Z,8.43
2019-05-01T21:02:49.330Z,7.70
2019-05-01T21:05:27.793Z,8.23
2019-05-01T21:08:08.627Z,8.27
2019-05-01T21:10:52.019Z,8.70
2019-05-01T21:13:23.468Z,9.90
2019-05-01T21:15:56.285Z,9.23
2019-05-01T21:18:27.764Z,9.53
2019-05-01T21:20:58.369Z,10.10
2019-05-01T21:23:28.847Z,10.47
2019-05-01T21:25:59.769Z,10.43
2019-05-01T21:28:30.355Z,12.13
2019-05-01T21:31:01.006Z,10.13
2019-05-01T21:33:33.996Z,10.70
2019-05-01T21:36:08.351Z,11.67
2019-05-01T21:38:37.393Z,11.83
2019-05-01T21:41:07.897Z,11.37
2019-05-01T21:43:38.337Z,11.10
2019-05-01T21:46:08.945Z,11.80
2019-05-01T21:48:39.542Z,12.33
2019-05-01T21:51:10.227Z,11.50
2019-05-01T21:53:42.769Z,11.77
2019-05-01T21:56:12.840Z,12.53
2019-05-01T21:58:45.183Z,12.00
2019-05-01T22:01:15.493Z,11.70
2019-05-01T22:03:46.107Z,13.00
2019-05-01T22:06:16.791Z,10.93
2019-05-01T22:08:47.186Z,11.50
2019-05-01T22:11:17.837Z,11.40
2019-05-01T22:13:48.610Z,10.13
2019-05-01T22:16:23.723Z,10.10
2019-05-01T22:19:14.842Z,9.33
2019-05-01T22:22:02.641Z,9.07
2019-05-01T22:24:53.239Z,8.43
2019-05-01T22:27:29.837Z,8.17
2019-05-01T22:30:12.472Z,9.00
2019-05-01T22:32:48.412Z,8.63
2019-05-01T22:35:24.347Z,7.87
2019-05-01T22:37:54.952Z,8.87
2019-05-01T22:40:43.008Z,7.77
2019-05-01T22:43:13.670Z,8.50
2019-05-01T22:45:44.278Z,9.07
2019-05-01T22:48:14.904Z,9.57
2019-05-01T22:50:46.251Z,8.20
2019-05-01T22:53:17.227Z,8.87
2019-05-01T22:55:47.888Z,8.83
2019-05-01T22:58:18.442Z,8.60
2019-05-01T23:00:51.475Z,8.57
2019-05-01T23:03:42.319Z,8.30
2019-05-01T23:06:13.227Z,9.47
2019-05-01T23:08:43.729Z,8.57
2019-05-01T23:11:20.038Z,8.77
2019-05-01T23:13:46.439Z,8.33
2019-05-01T23:16:18.635Z,8.40
2019-05-01T23:18:51.858Z,9.27
2019-05-01T23:21:21.650Z,8.10
2019-05-01T23:23:52.207Z,9.10
2019-05-01T23:26:23.517Z,9.10
2019-05-01T23:28:54.083Z,8.67
2019-05-01T23:31:24.847Z,10.00
2019-05-01T23:33:55.499Z,8.73
2019-05-01T23:36:26.209Z,10.20
2019-05-01T23:38:56.819Z,8.83
2019-05-01T23:41:44.678Z,9.17
2019-05-01T23:44:03.453Z,9.53
2019-05-01T23:46:31.658Z,10.00
2019-05-01T23:49:02.182Z,9.47
2019-05-01T23:51:32.680Z,10.20
2019-05-01T23:54:03.120Z,10.07
2019-05-01T23:56:35.043Z,9.87
2019-05-01T23:59:05.814Z,9.17
